Time;durP1;ratioP1;P1;durP2;ratioP2;P2;SDS_P1;SDS_P2;PMS_P1;PMS_P2;Temp;Humidity;BMP_temperature;BMP_pressure;BME280_temperature;BME280_humidity;BME280_pressure;Samples;Min_cycle;Max_cycle;Signal;HPM_P1;HPM_P2
2022/03/03 00:01:50;;;;;;;;;77.33;58.00;;;;;10.50;56.52;101491.34;5081172;28;45483;-63
2022/03/03 00:04:16;;;;;;;;;81.33;56.00;;;;;10.52;56.78;101493.94;5081550;28;45474;-62
2022/03/03 00:06:42;;;;;;;;;67.00;51.67;;;;;10.51;56.74;101487.81;5081667;28;45434;-63
2022/03/03 00:09:07;;;;;;;;;76.00;57.67;;;;;10.53;56.75;101482.47;5081782;27;45883;-62
2022/03/03 00:11:33;;;;;;;;;74.33;58.33;;;;;10.52;56.32;101486.88;5063241;27;45403;-62
2022/03/03 00:13:59;;;;;;;;;81.00;63.67;;;;;10.53;57.14;101483.31;5081611;27;45402;-63
2022/03/03 00:16:26;;;;;;;;;75.33;57.33;;;;;10.53;57.00;101485.97;5081426;28;45320;-62
2022/03/03 00:18:52;;;;;;;;;84.00;60.67;;;;;10.52;57.04;101480.75;5081314;27;45271;-63
2022/03/03 00:21:18;;;;;;;;;79.67;58.00;;;;;10.52;56.98;101478.13;5081234;28;45245;-62
2022/03/03 00:23:43;;;;;;;;;82.33;59.33;;;;;10.51;57.04;101481.69;5070352;27;45253;-63
2022/03/03 00:26:09;;;;;;;;;77.67;58.00;;;;;10.52;57.03;101472.88;5083346;27;45682;-63
2022/03/03 00:28:34;;;;;;;;;79.00;59.00;;;;;10.52;57.12;101486.88;5081207;28;46090;-62
2022/03/03 00:31:00;;;;;;;;;81.00;61.00;;;;;10.52;57.46;101476.34;5080869;28;45283;-63
2022/03/03 00:33:26;;;;;;;;;79.67;58.67;;;;;10.52;57.02;101478.97;5083655;27;45330;-63
2022/03/03 00:35:51;;;;;;;;;79.33;57.33;;;;;10.52;57.27;101480.75;5087476;27;45307;-63
2022/03/03 00:38:17;;;;;;;;;75.33;59.67;;;;;10.52;57.29;101478.97;5081304;27;45420;-63
2022/03/03 00:40:42;;;;;;;;;86.00;63.00;;;;;10.54;56.84;101489.44;5088728;27;45229;-63
2022/03/03 00:43:08;;;;;;;;;74.33;58.00;;;;;10.51;57.20;101482.53;5094379;27;45329;-63
2022/03/03 00:45:35;;;;;;;;;77.67;60.33;;;;;10.49;57.87;101481.75;5062948;28;45562;-63
2022/03/03 00:48:00;;;;;;;;;82.00;61.33;;;;;10.46;57.16;101481.03;5080573;28;45322;-62
2022/03/03 00:50:26;;;;;;;;;79.00;60.00;;;;;10.44;57.90;101483.75;5081013;27;45206;-62
2022/03/03 00:52:51;;;;;;;;;81.33;60.00;;;;;10.44;57.72;101485.53;5081299;28;45216;-62
2022/03/03 00:55:17;;;;;;;;;83.00;63.67;;;;;10.44;57.28;101485.53;5080953;27;45607;-63
2022/03/03 00:57:43;;;;;;;;;80.67;60.67;;;;;10.42;57.51;101488.22;5081078;28;45236;-63
2022/03/03 01:00:09;;;;;;;;;80.67;61.00;;;;;10.41;57.63;101488.28;5080758;28;45230;-63
2022/03/03 01:02:35;;;;;;;;;76.33;59.00;;;;;10.41;57.84;101480.41;5084365;28;45442;-62
2022/03/03 01:05:01;;;;;;;;;74.33;56.00;;;;;10.38;57.75;101478.78;5084507;27;45329;-62
2022/03/03 01:07:27;;;;;;;;;74.33;57.67;;;;;10.38;57.56;101486.66;5084310;28;45323;-62
2022/03/03 01:09:53;;;;;;;;;77.67;61.67;;;;;10.36;57.44;101485.91;5084201;27;45299;-63
2022/03/03 01:12:19;;;;;;;;;82.00;60.33;;;;;10.34;57.78;101487.72;5084495;27;45314;-63
2022/03/03 01:14:44;;;;;;;;;79.33;59.33;;;;;10.33;58.07;101483.38;5084243;28;45584;-62
2022/03/03 01:17:10;;;;;;;;;78.67;61.33;;;;;10.32;58.12;101482.53;5084406;28;45216;-63
2022/03/03 01:19:35;;;;;;;;;88.00;64.33;;;;;10.31;57.98;101490.50;5083968;28;45406;-63
2022/03/03 01:22:01;;;;;;;;;81.33;62.00;;;;;10.24;58.22;101483.81;5084423;27;45299;-62
2022/03/03 01:24:27;;;;;;;;;83.00;63.67;;;;;10.20;58.42;101488.34;5084244;27;45441;-63
2022/03/03 01:26:52;;;;;;;;;81.00;61.00;;;;;10.19;58.38;101477.84;5082723;27;46740;-63
2022/03/03 01:29:18;;;;;;;;;80.33;61.67;;;;;10.16;58.40;101478.88;5084019;27;45261;-63
2022/03/03 01:31:44;;;;;;;;;81.00;60.33;;;;;10.14;58.63;101479.88;5084109;28;45171;-63
2022/03/03 01:34:10;;;;;;;;;83.67;64.33;;;;;10.14;59.04;101474.59;5092394;27;45335;-62
2022/03/03 01:36:36;;;;;;;;;87.33;63.00;;;;;10.13;58.87;101472.91;5083884;28;46423;-63
2022/03/03 01:39:05;;;;;;;;;83.00;63.67;;;;;10.10;58.98;101470.38;5086554;27;45255;-62
2022/03/03 01:41:33;;;;;;;;;86.00;59.33;;;;;10.08;59.36;101465.19;5095240;27;45371;-63
2022/03/03 01:43:59;;;;;;;;;80.67;62.67;;;;;10.07;59.17;101468.75;5104405;27;45235;-63
2022/03/03 01:46:24;;;;;;;;;77.00;60.33;;;;;10.04;58.72;101469.75;5077747;28;45460;-62
2022/03/03 01:48:50;;;;;;;;;84.00;64.67;;;;;10.05;58.92;101470.63;5098206;27;45244;-63
2022/03/03 01:51:16;;;;;;;;;83.33;65.67;;;;;10.06;59.45;101461.78;5104487;27;45427;-63
2022/03/03 01:53:42;;;;;;;;;88.33;67.33;;;;;10.06;59.13;101460.00;5104119;27;45309;-63
2022/03/03 01:56:08;;;;;;;;;87.00;63.33;;;;;10.08;59.08;101460.78;5077490;28;47686;-63
2022/03/03 01:58:34;;;;;;;;;83.00;62.00;;;;;10.14;59.37;101461.44;5098844;27;45394;-62
2022/03/03 02:00:59;;;;;;;;;85.00;62.67;;;;;10.18;59.65;101461.22;5104186;27;45341;-63
2022/03/03 02:03:25;;;;;;;;;84.67;63.67;;;;;10.21;59.42;101463.72;5103816;27;45216;-63
2022/03/03 02:05:51;;;;;;;;;82.67;63.33;;;;;10.25;59.16;101460.03;5104130;27;45488;-62
2022/03/03 02:08:17;;;;;;;;;83.67;62.00;;;;;10.28;59.02;101454.66;5103777;27;45626;-63
2022/03/03 02:10:42;;;;;;;;;87.33;68.33;;;;;10.31;59.09;101459.75;5104203;27;45290;-63
2022/03/03 02:13:08;;;;;;;;;90.33;68.67;;;;;10.34;59.56;101459.59;5103700;27;45495;-62
2022/03/03 02:15:34;;;;;;;;;87.67;63.33;;;;;10.36;58.98;101451.66;5103557;27;45386;-61
2022/03/03 02:18:00;;;;;;;;;81.33;62.00;;;;;10.39;59.56;101453.28;5103496;27;45509;-63
2022/03/03 02:20:28;;;;;;;;;81.00;61.33;;;;;10.41;59.40;101454.91;5103910;27;45437;-62
2022/03/03 02:22:55;;;;;;;;;82.33;58.00;;;;;10.46;59.69;101457.34;5103818;27;45404;-62
2022/03/03 02:25:22;;;;;;;;;83.00;62.00;;;;;10.50;58.55;101453.63;5103682;27;45300;-62
2022/03/03 02:27:48;;;;;;;;;80.67;62.33;;;;;10.51;58.96;101445.66;5103681;27;45217;-62
2022/03/03 02:30:16;;;;;;;;;85.33;62.33;;;;;10.55;58.56;101457.75;5103926;27;45457;-63
2022/03/03 02:32:42;;;;;;;;;82.00;63.00;;;;;10.58;58.70;101446.19;5103371;27;45342;-62
2022/03/03 02:35:09;;;;;;;;;83.00;63.33;;;;;10.59;59.25;101445.31;5094006;27;45419;-63
2022/03/03 02:37:36;;;;;;;;;87.33;64.33;;;;;10.62;59.01;101448.63;5083142;28;45356;-62
2022/03/03 02:40:04;;;;;;;;;83.33;60.33;;;;;10.68;59.11;101452.75;5085326;27;45268;-62
2022/03/03 02:42:29;;;;;;;;;80.67;61.00;;;;;10.69;58.56;101446.56;5100220;27;45419;-62
2022/03/03 02:44:55;;;;;;;;;86.33;63.67;;;;;10.73;58.96;101447.25;5091776;27;45987;-62
2022/03/03 02:47:20;;;;;;;;;84.00;62.00;;;;;10.74;58.64;101441.03;5086921;27;45389;-62
2022/03/03 02:49:46;;;;;;;;;85.00;63.33;;;;;10.75;58.59;101441.00;5083062;28;45457;-62
2022/03/03 02:52:11;;;;;;;;;86.67;63.33;;;;;10.77;58.78;101433.88;5082885;28;45587;-62
2022/03/03 02:54:37;;;;;;;;;77.67;61.00;;;;;10.79;58.67;101429.38;5082607;28;46157;-62
2022/03/03 02:59:47;;;;;;;;;81.67;61.33;;;;;10.81;58.69;101426.66;5082903;27;45223;-62
2022/03/03 03:02:12;;;;;;;;;83.00;62.33;;;;;10.85;58.66;101423.78;5082366;28;45249;-62
2022/03/03 03:04:38;;;;;;;;;85.67;63.67;;;;;10.87;58.83;101427.19;5082677;28;46116;-63
2022/03/03 03:07:03;;;;;;;;;81.67;62.00;;;;;10.88;58.33;101420.16;5082485;28;45377;-63
2022/03/03 03:09:29;;;;;;;;;86.67;62.00;;;;;10.84;58.51;101416.81;5082800;27;45296;-62
2022/03/03 03:11:55;;;;;;;;;88.00;61.33;;;;;10.88;58.31;101412.25;5082747;27;45271;-63
2022/03/03 03:14:21;;;;;;;;;85.00;63.33;;;;;10.90;58.22;101413.00;5082415;28;45220;-62
2022/03/03 03:16:47;;;;;;;;;90.00;68.00;;;;;10.91;58.27;101412.09;5082332;27;45442;-62
2022/03/03 03:19:12;;;;;;;;;87.00;66.00;;;;;10.92;58.33;101399.78;5082454;27;45379;-62
2022/03/03 03:21:38;;;;;;;;;85.00;63.33;;;;;10.90;58.65;101405.97;5082386;27;45174;-63
2022/03/03 03:24:04;;;;;;;;;86.00;65.33;;;;;10.93;58.21;101398.84;5081660;28;45344;-62
2022/03/03 03:26:29;;;;;;;;;87.00;64.33;;;;;10.94;58.66;101387.38;5082100;27;45371;-63
2022/03/03 03:28:55;;;;;;;;;80.33;61.00;;;;;10.98;58.65;101392.41;5082478;27;45322;-63
2022/03/03 03:31:20;;;;;;;;;84.33;62.00;;;;;11.01;58.69;101396.66;5082161;27;45330;-62
2022/03/03 03:33:46;;;;;;;;;81.67;62.00;;;;;11.02;58.37;101390.47;5087368;27;45330;-62
2022/03/03 03:36:12;;;;;;;;;82.67;62.00;;;;;11.04;58.32;101385.97;5084767;27;45263;-62
2022/03/03 03:38:37;;;;;;;;;79.67;60.00;;;;;11.03;58.27;101384.25;5082209;28;45440;-63
2022/03/03 03:41:03;;;;;;;;;82.67;59.67;;;;;11.02;58.77;101379.91;5091804;27;45239;-63
2022/03/03 03:43:28;;;;;;;;;78.33;61.00;;;;;11.01;58.35;101379.06;5091895;27;45472;-63
2022/03/03 03:45:54;;;;;;;;;78.33;60.33;;;;;11.01;58.36;101389.63;5081851;27;45330;-61
2022/03/03 03:48:19;;;;;;;;;81.00;61.00;;;;;11.02;58.69;101375.50;5081019;27;45289;-63
2022/03/03 03:50:45;;;;;;;;;84.33;61.33;;;;;11.03;58.80;101363.16;5080568;28;45580;-63
2022/03/03 03:53:10;;;;;;;;;80.33;61.00;;;;;11.06;58.99;101373.53;5080223;28;45372;-63
2022/03/03 03:55:36;;;;;;;;;76.33;59.00;;;;;11.03;58.34;101360.53;5080127;28;45208;-63
2022/03/03 03:58:02;;;;;;;;;80.33;60.00;;;;;11.08;58.71;101371.72;5080508;28;45226;-63
2022/03/03 04:00:28;;;;;;;;;78.67;60.33;;;;;11.09;58.66;101360.22;5080389;28;45340;-63
2022/03/03 04:02:53;;;;;;;;;78.00;56.67;;;;;11.08;58.02;101367.28;5079971;28;46404;-63
2022/03/03 04:05:19;;;;;;;;;81.67;61.67;;;;;11.07;58.54;101364.72;5080094;28;45260;-63
2022/03/03 04:07:44;;;;;;;;;74.67;57.67;;;;;11.07;58.56;101367.38;5080491;28;45378;-63
2022/03/03 04:10:11;;;;;;;;;78.33;60.33;;;;;11.10;58.27;101362.78;5080393;27;45482;-63
2022/03/03 04:12:38;;;;;;;;;78.00;60.00;;;;;11.13;58.49;101356.47;5080104;27;45399;-63
2022/03/03 04:15:04;;;;;;;;;79.67;60.67;;;;;11.15;58.47;101354.63;5079864;28;45363;-63
2022/03/03 04:17:30;;;;;;;;;77.33;58.67;;;;;11.17;58.15;101352.78;5071832;27;45288;-63
2022/03/03 04:19:56;;;;;;;;;78.00;57.33;;;;;11.20;58.71;101352.59;5083606;27;45418;-63
2022/03/03 04:22:21;;;;;;;;;79.33;59.33;;;;;11.24;58.56;101348.03;5079977;28;46329;-63
2022/03/03 04:24:47;;;;;;;;;74.00;56.33;;;;;11.25;58.54;101344.47;5079864;27;45220;-63
2022/03/03 04:27:12;;;;;;;;;78.67;59.67;;;;;11.25;58.42;101337.41;5080083;28;45264;-63
2022/03/03 04:29:38;;;;;;;;;80.67;61.00;;;;;11.27;58.52;101337.31;5079969;28;45220;-63
2022/03/03 04:32:04;;;;;;;;;80.67;61.00;;;;;11.28;58.32;101331.94;5079592;27;45531;-63
2022/03/03 04:34:29;;;;;;;;;73.00;55.67;;;;;11.30;57.94;101327.47;5088004;27;45616;-63
2022/03/03 04:36:55;;;;;;;;;74.67;57.00;;;;;11.32;58.32;101327.38;5079349;28;45471;-64
2022/03/03 04:39:20;;;;;;;;;79.67;59.00;;;;;11.32;58.22;101327.38;5082654;27;45333;-63
2022/03/03 04:41:46;;;;;;;;;80.33;60.33;;;;;11.33;58.10;101323.81;5092829;27;46680;-63
2022/03/03 04:44:11;;;;;;;;;83.33;59.67;;;;;11.34;58.48;101320.22;5100012;27;45310;-63
2022/03/03 04:46:37;;;;;;;;;78.00;59.33;;;;;11.36;58.65;101321.00;5100132;27;45324;-63
2022/03/03 04:49:03;;;;;;;;;80.33;56.33;;;;;11.38;58.75;101316.50;5055152;27;1295717;-63
2022/03/03 04:51:30;;;;;;;;;76.33;56.67;;;;;11.38;58.55;101314.72;5101498;27;45446;-64
2022/03/03 04:53:56;;;;;;;;;73.67;53.00;;;;;11.40;58.73;101318.13;5101253;27;45254;-63
2022/03/03 04:56:21;;;;;;;;;82.67;60.00;;;;;11.42;58.68;101308.34;5101790;27;45314;-63
2022/03/03 04:58:47;;;;;;;;;76.00;57.67;;;;;11.44;58.87;101310.88;5101426;27;45574;-63
2022/03/03 05:01:12;;;;;;;;;82.67;60.00;;;;;11.45;59.24;101304.66;5101261;27;45802;-63
2022/03/03 05:03:38;;;;;;;;;75.67;58.00;;;;;11.46;59.41;101309.03;5100820;27;45244;-63
2022/03/03 05:06:04;;;;;;;;;74.67;56.00;;;;;11.48;58.97;101308.94;5101541;27;45246;-63
2022/03/03 05:08:30;;;;;;;;;73.00;57.00;;;;;11.50;59.33;101312.34;5082878;27;45314;-63
2022/03/03 05:10:55;;;;;;;;;74.33;53.00;;;;;11.51;59.42;101306.97;5100975;27;45438;-63
2022/03/03 05:13:21;;;;;;;;;77.67;55.67;;;;;11.53;59.99;101312.19;5101151;27;45343;-63
2022/03/03 05:15:46;;;;;;;;;71.67;53.00;;;;;11.52;59.51;101313.97;5101182;27;45460;-63
2022/03/03 05:18:12;;;;;;;;;69.33;53.33;;;;;11.54;59.82;101306.84;5100906;27;45502;-63
2022/03/03 05:20:40;;;;;;;;;75.67;53.00;;;;;11.57;59.76;101311.94;5101073;27;46583;-63
2022/03/03 05:23:06;;;;;;;;;71.33;54.00;;;;;11.60;60.00;101311.75;5101190;27;45261;-63
2022/03/03 05:25:31;;;;;;;;;68.33;54.00;;;;;11.62;59.89;101312.56;5101177;27;45162;-63
2022/03/03 05:28:02;;;;;;;;;66.67;51.33;;;;;11.61;59.87;101308.22;5101084;27;45403;-63
2022/03/03 05:30:28;;;;;;;;;73.67;54.00;;;;;11.64;60.13;101307.19;5100847;27;45441;-63
2022/03/03 05:32:54;;;;;;;;;72.00;52.33;;;;;11.64;60.17;101305.41;5100478;27;45422;-63
2022/03/03 05:35:19;;;;;;;;;65.75;51.00;;;;;11.66;60.39;101316.72;5090701;27;45411;-63
2022/03/03 05:37:48;;;;;;;;;64.50;51.25;;;;;11.67;60.35;101307.00;5094255;27;45330;-63
2022/03/03 05:40:14;;;;;;;;;68.25;52.25;;;;;11.69;60.40;101318.31;5083157;27;45419;-63
2022/03/03 05:42:40;;;;;;;;;67.00;53.67;;;;;11.66;60.25;101316.72;5096957;27;45410;-63
2022/03/03 05:45:06;;;;;;;;;73.33;57.33;;;;;11.61;59.71;101316.13;5080530;28;45315;-63
2022/03/03 05:47:33;;;;;;;;;81.33;60.67;;;;;11.57;59.43;101316.38;5085388;27;45391;-63
2022/03/03 05:50:00;;;;;;;;;77.67;61.00;;;;;11.52;59.64;101313.13;5104206;27;45334;-63
2022/03/03 05:52:26;;;;;;;;;82.00;60.00;;;;;11.50;59.33;101320.25;5104276;27;45252;-63
2022/03/03 05:54:52;;;;;;;;;80.33;57.00;;;;;11.47;59.48;101318.66;5104402;27;45231;-63
2022/03/03 05:57:36;;;;;;;;;83.00;60.00;;;;;11.43;59.43;101315.31;5104251;27;45256;-62
2022/03/03 06:00:09;;;;;;;;;77.33;57.00;;;;;11.38;59.24;101314.72;5103699;27;46186;-62
2022/03/03 06:02:35;;;;;;;;;77.33;59.00;;;;;11.39;59.51;101313.78;5103898;27;45223;-63
2022/03/03 06:05:02;;;;;;;;;78.67;58.33;;;;;11.39;59.48;101307.66;5103968;27;45215;-63
2022/03/03 06:07:31;;;;;;;;;80.33;59.67;;;;;11.39;59.90;101307.66;5104365;27;45263;-62
2022/03/03 06:10:01;;;;;;;;;79.33;60.33;;;;;11.39;59.76;101300.59;5103856;27;45425;-63
2022/03/03 06:12:45;;;;;;;;;79.67;60.33;;;;;11.40;59.48;101304.94;5104137;27;45477;-63
2022/03/03 06:15:13;;;;;;;;;78.67;60.67;;;;;11.39;59.54;101300.59;5104068;27;45247;-63
2022/03/03 06:17:42;;;;;;;;;83.00;62.00;;;;;11.39;59.59;101307.66;5103611;27;45469;-63
2022/03/03 06:20:07;;;;;;;;;76.00;59.67;;;;;11.36;59.65;101303.38;5103498;27;46313;-63
2022/03/03 06:22:33;;;;;;;;;77.33;58.00;;;;;11.36;59.43;101306.03;5103647;27;45312;-63
2022/03/03 06:24:59;;;;;;;;;85.67;61.33;;;;;11.36;59.41;101308.66;5103734;27;45506;-63
2022/03/03 06:27:24;;;;;;;;;78.00;60.67;;;;;11.39;59.84;101320.84;5103818;27;45449;-62
2022/03/03 06:29:50;;;;;;;;;79.33;58.00;;;;;11.39;59.56;101311.16;5084896;27;45798;-63
2022/03/03 06:32:15;;;;;;;;;82.00;63.00;;;;;11.42;59.77;101320.69;5103260;27;45224;-63
2022/03/03 06:34:41;;;;;;;;;81.33;60.67;;;;;11.44;59.40;101330.19;5074760;28;45284;-63
2022/03/03 06:37:06;;;;;;;;;78.00;59.00;;;;;11.43;59.74;101323.22;5076735;27;45335;-63
2022/03/03 06:39:32;;;;;;;;;82.33;58.67;;;;;11.45;59.79;101328.41;5068114;28;45750;-62
2022/03/03 06:41:58;;;;;;;;;80.00;61.33;;;;;11.44;59.71;101329.34;5097651;27;45329;-63
2022/03/03 06:44:23;;;;;;;;;83.67;61.00;;;;;11.45;59.88;101326.66;5085117;27;45446;-63
2022/03/03 06:46:49;;;;;;;;;80.67;59.33;;;;;11.48;59.77;101328.28;5082970;27;45319;-63
2022/03/03 06:49:15;;;;;;;;;81.67;61.33;;;;;11.48;59.91;101328.28;5082354;27;45551;-63
2022/03/03 06:51:43;;;;;;;;;82.33;58.33;;;;;11.48;60.29;101325.63;5082958;27;45427;-63
2022/03/03 06:54:16;;;;;;;;;81.67;59.67;;;;;11.53;60.08;101331.50;5082605;27;45338;-62
2022/03/03 06:56:47;;;;;;;;;73.00;56.67;;;;;11.58;61.00;101333.91;5082901;27;45521;-63
2022/03/03 06:59:18;;;;;;;;;71.75;54.50;;;;;11.61;61.56;101331.09;5081289;28;45314;-63
2022/03/03 07:01:47;;;;;;;;;62.50;50.50;;;;;11.64;62.54;101334.44;5082341;27;45379;-63
2022/03/03 07:04:13;;;;;;;;;63.50;45.00;;;;;11.67;62.95;101334.25;5089832;27;45326;-63
2022/03/03 07:06:40;;;;;;;;;52.75;42.50;;;;;11.72;63.27;101326.94;5103059;27;45461;-63
2022/03/03 07:09:08;;;;;;;;;60.75;42.00;;;;;11.76;63.58;101332.88;5103014;27;45440;-63
2022/03/03 07:11:36;;;;;;;;;52.75;41.75;;;;;11.79;63.53;101332.75;5102739;27;45358;-63
2022/03/03 07:14:02;;;;;;;;;61.25;44.00;;;;;11.82;63.77;101335.22;5102985;27;45264;-62
2022/03/03 07:16:51;;;;;;;;;53.25;41.25;;;;;11.89;63.80;101333.13;5102696;27;45536;-63
2022/03/03 07:19:25;;;;;;;;;51.25;41.75;;;;;11.92;63.89;101339.06;5102498;27;46420;-63
2022/03/03 07:22:02;;;;;;;;;54.25;41.25;;;;;11.95;63.82;101336.28;5065144;28;45412;-63
2022/03/03 07:24:34;;;;;;;;;59.25;44.75;;;;;11.98;63.93;101333.44;5074428;28;45404;-63
2022/03/03 07:27:01;;;;;;;;;50.00;41.50;;;;;12.03;63.99;101341.13;5082424;28;45347;-63
2022/03/03 07:29:30;;;;;;;;;57.75;42.00;;;;;12.08;64.21;101338.22;5081981;27;46134;-64
2022/03/03 07:31:58;;;;;;;;;61.00;45.00;;;;;12.12;63.85;101335.31;5081732;28;45176;-63
2022/03/03 07:34:29;;;;;;;;;62.75;47.25;;;;;12.14;63.60;101340.50;5091316;27;45327;-63
2022/03/03 07:36:57;;;;;;;;;52.75;40.75;;;;;12.17;63.84;101332.44;5082308;28;45186;-63
2022/03/03 07:39:31;;;;;;;;;59.25;45.75;;;;;12.17;63.65;101330.66;5085597;27;46047;-63
2022/03/03 07:41:59;;;;;;;;;59.25;46.25;;;;;12.17;63.85;101328.00;5096493;27;45222;-63
2022/03/03 07:44:24;;;;;;;;;61.50;48.25;;;;;12.23;63.69;101334.72;5084128;27;45217;-63
2022/03/03 07:46:50;;;;;;;;;61.50;47.50;;;;;12.26;63.83;101332.75;5081888;28;45463;-63
2022/03/03 07:49:21;;;;;;;;;61.75;45.00;;;;;12.30;63.51;101336.06;5081226;28;46018;-63
2022/03/03 07:51:49;;;;;;;;;65.25;49.75;;;;;12.31;63.69;101335.13;5081810;28;45332;-63
2022/03/03 07:54:15;;;;;;;;;60.75;45.00;;;;;12.33;63.75;101335.91;5081775;27;45228;-62
2022/03/03 07:56:43;;;;;;;;;56.75;46.50;;;;;12.36;63.46;101341.00;5081864;28;45637;-63
2022/03/03 07:59:12;;;;;;;;;62.75;48.25;;;;;12.40;63.73;101334.63;5081443;28;45413;-63
2022/03/03 08:01:38;;;;;;;;;60.75;44.50;;;;;12.43;63.73;101337.09;5081653;28;45334;-63
2022/03/03 08:04:04;;;;;;;;;55.00;44.00;;;;;12.45;63.28;101335.19;5081566;27;45246;-62
2022/03/03 08:06:32;;;;;;;;;59.50;47.00;;;;;12.47;63.31;101333.31;5081899;28;45328;-63
2022/03/03 08:09:01;;;;;;;;;57.25;42.75;;;;;12.49;63.49;101326.16;5081619;28;45454;-63
2022/03/03 08:11:28;;;;;;;;;58.00;46.25;;;;;12.51;63.65;101339.28;5081100;27;45252;-63
2022/03/03 08:13:56;;;;;;;;;56.75;44.75;;;;;12.52;63.63;101328.63;5081635;28;45297;-63
2022/03/03 08:16:22;;;;;;;;;63.00;47.00;;;;;12.59;63.71;101334.41;5081071;28;45269;-62
2022/03/03 08:18:48;;;;;;;;;61.00;47.25;;;;;12.66;63.41;101333.09;5081033;28;45521;-63
2022/03/03 08:21:15;;;;;;;;;59.25;42.25;;;;;12.69;63.08;101325.00;5081122;27;46560;-63
2022/03/03 08:23:42;;;;;;;;;59.00;47.00;;;;;12.71;63.41;101327.53;5081570;28;45311;-62
2022/03/03 08:26:12;;;;;;;;;62.25;46.75;;;;;12.72;63.31;101326.63;5081283;28;45244;-63
2022/03/03 08:28:41;;;;;;;;;58.75;43.75;;;;;12.74;63.24;101324.72;5081213;28;46255;-63
2022/03/03 08:31:07;;;;;;;;;60.75;46.75;;;;;12.74;63.33;101314.16;5080880;28;45242;-63
2022/03/03 08:33:56;;;;;;;;;63.25;45.50;;;;;12.81;63.37;101320.78;5084694;27;45304;-62
2022/03/03 08:36:34;;;;;;;;;58.00;44.50;;;;;12.88;63.17;101330.06;5081839;27;45474;-62
2022/03/03 08:39:05;;;;;;;;;58.75;46.50;;;;;12.92;63.04;101320.13;5082411;27;45253;-63
2022/03/03 08:41:37;;;;;;;;;60.00;46.75;;;;;12.97;63.08;101324.22;5092073;27;45465;-63
2022/03/03 08:44:05;;;;;;;;;61.75;48.75;;;;;13.06;63.00;101314.88;5086291;27;45358;-63
2022/03/03 08:46:34;;;;;;;;;59.25;45.75;;;;;13.17;62.74;101325.66;5080891;28;45355;-63
2022/03/03 08:49:01;;;;;;;;;63.50;45.50;;;;;13.23;62.77;101320.03;5080275;27;45489;-63
2022/03/03 08:51:28;;;;;;;;;53.00;44.25;;;;;13.25;62.53;101327.84;5081088;28;45395;-63
2022/03/03 08:53:53;;;;;;;;;60.50;44.25;;;;;13.28;62.44;101330.34;5080891;27;45438;-63
2022/03/03 08:56:19;;;;;;;;;55.75;41.75;;;;;13.32;62.48;101331.84;5081200;27;45226;-63
2022/03/03 08:58:45;;;;;;;;;52.00;43.25;;;;;13.38;62.10;101334.09;5080661;28;45287;-63
2022/03/03 09:01:10;;;;;;;;;55.25;43.25;;;;;13.47;62.26;101333.53;5080755;28;45394;-63
2022/03/03 09:03:38;;;;;;;;;56.50;44.75;;;;;13.56;61.98;101337.41;5080768;28;45467;-63
2022/03/03 09:06:03;;;;;;;;;56.50;43.75;;;;;13.61;61.86;101341.47;5080995;28;45522;-63
2022/03/03 09:08:29;;;;;;;;;53.50;41.50;;;;;13.69;61.55;101343.66;5080634;28;46268;-63
2022/03/03 09:10:55;;;;;;;;;55.75;41.50;;;;;13.76;61.41;101339.69;5080703;28;45287;-63
2022/03/03 09:13:21;;;;;;;;;58.75;45.25;;;;;13.84;61.25;101342.69;5080929;27;45307;-63
2022/03/03 09:15:46;;;;;;;;;49.75;37.50;;;;;13.91;61.14;101337.84;5080645;28;45251;-63
2022/03/03 09:18:12;;;;;;;;;55.75;43.75;;;;;13.94;60.97;101337.66;5080437;28;46084;-63
2022/03/03 09:20:37;;;;;;;;;57.25;44.50;;;;;14.00;60.93;101337.25;5080594;27;45355;-62
2022/03/03 09:23:03;;;;;;;;;60.00;46.75;;;;;14.06;60.88;101342.19;5083377;27;45397;-62
2022/03/03 09:25:29;;;;;;;;;59.00;43.50;;;;;14.13;60.46;101342.59;5084131;27;45374;-62
2022/03/03 09:27:54;;;;;;;;;54.50;39.75;;;;;14.17;60.27;101346.78;5083694;27;46177;-62
2022/03/03 09:30:21;;;;;;;;;57.00;44.50;;;;;14.17;60.31;101344.13;5065629;28;45402;-62
2022/03/03 09:32:47;;;;;;;;;54.25;42.50;;;;;14.14;60.30;101341.66;5083735;28;45533;-62
2022/03/03 09:35:14;;;;;;;;;54.25;40.25;;;;;14.15;60.30;101340.72;5092476;27;45438;-63
2022/03/03 09:37:40;;;;;;;;;50.00;40.25;;;;;14.14;59.89;101337.25;5083649;27;46193;-63
2022/03/03 09:40:07;;;;;;;;;50.75;39.75;;;;;14.09;59.88;101335.81;5068457;28;45268;-61
2022/03/03 09:42:34;;;;;;;;;55.50;43.75;;;;;14.06;60.18;101330.69;5100959;27;45298;-61
2022/03/03 09:45:08;;;;;;;;;55.50;43.25;;;;;13.99;60.03;101334.72;5083844;28;45192;-63
2022/03/03 09:47:38;;;;;;;;;61.75;46.00;;;;;13.96;60.53;101333.94;5064665;28;47299;-64
2022/03/03 09:50:06;;;;;;;;;58.00;46.00;;;;;14.01;60.56;101331.03;5083593;27;45391;-63
2022/03/03 09:52:32;;;;;;;;;50.25;38.50;;;;;14.08;60.38;101339.44;5083618;28;45319;-62
2022/03/03 09:54:57;;;;;;;;;54.50;42.50;;;;;14.09;60.19;101339.31;5083496;28;45511;-63
2022/03/03 09:57:24;;;;;;;;;63.50;44.50;;;;;14.08;60.49;101331.47;5083285;27;45202;-62
2022/03/03 09:59:52;;;;;;;;;59.50;45.50;;;;;14.07;60.49;101327.97;5083666;27;45421;-63
2022/03/03 10:02:18;;;;;;;;;55.25;46.25;;;;;14.11;60.14;101337.41;5083611;27;45325;-63
2022/03/03 10:04:44;;;;;;;;;56.50;45.00;;;;;14.13;60.49;101332.00;5091908;27;45307;-62
2022/03/03 10:07:10;;;;;;;;;59.75;43.75;;;;;14.17;60.25;101330.88;5083072;27;45333;-63
2022/03/03 10:12:22;;;;;;;;;61.50;45.25;;;;;14.22;60.36;101336.75;5083603;28;45469;-63
2022/03/03 10:14:49;;;;;;;;;58.25;43.50;;;;;14.25;60.16;101328.56;5083116;27;45512;-64
2022/03/03 10:17:16;;;;;;;;;50.50;39.75;;;;;14.25;59.64;101333.88;5064527;28;45619;-62
2022/03/03 10:19:56;;;;;;;;;57.25;42.50;;;;;14.27;59.92;101325.81;5082976;28;45362;-63
2022/03/03 10:22:41;;;;;;;;;56.25;43.50;;;;;14.30;59.70;101330.91;5083217;27;45244;-61
2022/03/03 10:25:09;;;;;;;;;51.25;41.25;;;;;14.31;59.52;101319.38;5064930;28;45179;-63
2022/03/03 10:27:34;;;;;;;;;58.00;44.50;;;;;14.39;59.68;101322.38;5082906;27;46386;-63
2022/03/03 10:30:01;;;;;;;;;57.75;44.25;;;;;14.43;59.53;101322.06;5082855;27;45391;-62
2022/03/03 10:32:26;;;;;;;;;51.50;41.50;;;;;14.41;59.19;101323.97;5082347;27;45496;-62
2022/03/03 10:34:56;;;;;;;;;52.00;42.25;;;;;14.36;59.39;101319.91;5090804;27;45318;-62
2022/03/03 10:37:23;;;;;;;;;57.00;43.50;;;;;14.31;59.39;101316.75;5082378;27;46263;-62
2022/03/03 10:39:56;;;;;;;;;54.25;42.25;;;;;14.30;59.87;101317.66;5084895;27;45354;-62
2022/03/03 10:42:24;;;;;;;;;57.75;45.25;;;;;14.29;59.99;101322.13;5099669;27;45247;-62
2022/03/03 10:45:04;;;;;;;;;55.75;42.25;;;;;14.29;59.86;101321.25;5082595;27;45238;-62
2022/03/03 10:47:29;;;;;;;;;63.75;47.25;;;;;14.34;60.15;101324.47;5081960;27;46153;-62
2022/03/03 10:49:57;;;;;;;;;61.25;45.00;;;;;14.40;60.34;101321.44;5082827;28;45406;-62
2022/03/03 10:52:23;;;;;;;;;57.75;45.00;;;;;14.44;59.93;101321.09;5082655;27;45438;-62
2022/03/03 10:54:51;;;;;;;;;47.50;39.75;;;;;14.51;59.64;101318.94;5082914;27;45277;-62
2022/03/03 10:57:38;;;;;;;;;55.00;45.25;;;;;14.58;59.42;101319.38;5082326;27;45637;-62
2022/03/03 11:00:10;;;;;;;;;55.50;42.75;;;;;14.61;59.21;101309.41;5082207;28;45303;-62
2022/03/03 11:02:37;;;;;;;;;49.00;39.00;;;;;14.64;59.37;101313.69;5082322;28;45408;-63
2022/03/03 11:05:04;;;;;;;;;58.50;46.00;;;;;14.70;59.30;101310.63;5082359;28;45635;-62
2022/03/03 11:07:30;;;;;;;;;56.25;45.00;;;;;14.68;58.96;101307.19;5082364;28;45395;-62
2022/03/03 11:09:57;;;;;;;;;49.00;37.75;;;;;14.70;59.00;101313.28;5082140;28;45310;-62
2022/03/03 11:12:25;;;;;;;;;55.00;42.75;;;;;14.72;58.72;101309.56;5082529;28;45383;-62
2022/03/03 11:14:53;;;;;;;;;57.75;42.00;;;;;14.74;58.26;101307.63;5082318;28;45363;-62